Time;durP1;ratioP1;P1;durP2;ratioP2;P2;SDS_P1;SDS_P2;PMS_P1;PMS_P2;Temp;Humidity;BMP_temperature;BMP_pressure;BME280_temperature;BME280_humidity;BME280_pressure;Samples;Min_cycle;Max_cycle;Signal;HPM_P1;HPM_P2
2023/09/06 18:57:00;;;;;;;10.90;5.40;;;;;;;19.56;66.95;101049.16;4273200;28;20569;-67
2023/09/06 18:59:27;;;;;;;12.60;5.90;;;;;;;19.55;67.32;101055.69;4261369;28;20230;-68
2023/09/06 19:01:53;;;;;;;14.27;5.53;;;;;;;19.57;67.59;101059.09;4242085;28;20230;-71
2023/09/06 19:04:21;;;;;;;12.80;5.40;;;;;;;19.55;67.58;101061.16;4234296;28;20731;-69
2023/09/06 19:06:48;;;;;;;12.00;5.10;;;;;;;19.53;68.04;101060.50;4236393;28;20289;-70
2023/09/06 19:09:15;;;;;;;10.80;5.50;;;;;;;19.49;68.30;101053.69;4241342;28;20243;-70
2023/09/06 19:11:42;;;;;;;14.47;5.10;;;;;;;19.44;68.57;101059.75;4241199;28;20518;-71
2023/09/06 19:14:09;;;;;;;10.50;5.57;;;;;;;19.43;68.98;101059.97;4266982;28;21220;-70
2023/09/06 19:16:35;;;;;;;14.13;5.50;;;;;;;19.40;68.59;101050.22;4245941;28;22698;-70
2023/09/06 19:19:02;;;;;;;14.13;5.73;;;;;;;19.40;68.90;101060.34;4257705;28;20307;-72
2023/09/06 19:21:29;;;;;;;15.67;5.57;;;;;;;19.36;69.08;101051.63;4270784;28;20243;-70
2023/09/06 19:23:55;;;;;;;14.63;5.43;;;;;;;19.34;69.15;101056.44;4278263;28;20416;-68
2023/09/06 19:26:24;;;;;;;11.70;4.80;;;;;;;19.28;69.44;101055.34;4329528;28;20441;-70
2023/09/06 19:28:54;;;;;;;12.70;5.57;;;;;;;19.25;69.83;101050.22;4385192;28;20474;-69
2023/09/06 19:31:25;;;;;;;14.77;6.83;;;;;;;19.26;70.00;101053.84;4355359;28;20295;-71
2023/09/06 19:33:52;;;;;;;19.27;7.13;;;;;;;19.19;70.22;101059.22;4358284;28;20605;-69
2023/09/06 19:36:19;;;;;;;16.23;6.30;;;;;;;19.11;70.65;101062.88;4365370;28;20262;-70
2023/09/06 19:38:51;;;;;;;11.70;6.00;;;;;;;19.00;71.18;101061.47;4324336;28;20855;-70
2023/09/06 19:41:18;;;;;;;16.33;6.77;;;;;;;18.99;71.00;101059.78;4367289;28;21666;-69
2023/09/06 19:43:48;;;;;;;16.87;7.37;;;;;;;18.98;71.52;101049.84;4352523;28;20625;-71
2023/09/06 19:46:15;;;;;;;16.93;8.30;;;;;;;18.90;71.88;101062.75;4250387;28;20870;-73
2023/09/06 19:48:43;;;;;;;20.00;7.97;;;;;;;18.84;72.19;101058.88;4262942;28;20355;-71
2023/09/06 19:51:30;;;;;;;23.17;7.67;;;;;;;18.91;72.48;101070.81;4248016;28;20405;-70
2023/09/06 19:53:57;;;;;;;21.80;7.20;;;;;;;18.72;73.06;101060.34;4242334;28;20235;-71
2023/09/06 19:56:24;;;;;;;15.03;6.70;;;;;;;18.65;73.27;101063.84;4262544;28;26175;-70
2023/09/06 19:58:51;;;;;;;20.73;7.93;;;;;;;18.64;73.62;101064.88;4251217;28;20943;-70
2023/09/06 20:01:21;;;;;;;19.17;8.37;;;;;;;18.68;73.86;101066.22;4258969;28;20238;-72
2023/09/06 20:03:48;;;;;;;17.07;8.00;;;;;;;18.64;73.98;101072.25;4238537;28;20287;-70
2023/09/06 20:06:15;;;;;;;22.80;7.30;;;;;;;18.58;74.32;101071.09;4245217;28;20251;-71
2023/09/06 20:08:42;;;;;;;25.03;8.30;;;;;;;18.56;74.51;101070.44;4239012;28;20233;-69
2023/09/06 20:11:09;;;;;;;16.47;7.50;;;;;;;18.56;74.85;101075.91;4229677;28;20234;-70
2023/09/06 20:13:36;;;;;;;23.07;7.20;;;;;;;18.49;74.98;101067.59;4227388;28;20230;-69
2023/09/06 20:16:03;;;;;;;17.63;7.93;;;;;;;18.49;75.21;101077.69;4229843;28;20254;-69
2023/09/06 20:18:30;;;;;;;18.80;7.90;;;;;;;18.40;75.33;101070.56;4240845;28;21692;-70
2023/09/06 20:21:05;;;;;;;17.17;8.03;;;;;;;18.34;75.44;101069.44;4237217;28;20231;-70
2023/09/06 20:23:33;;;;;;;22.20;8.83;;;;;;;18.27;75.74;101074.78;4237323;28;20862;-69
2023/09/06 20:26:00;;;;;;;16.70;7.40;;;;;;;18.25;75.85;101073.25;4227621;28;20303;-69
2023/09/06 20:28:26;;;;;;;21.57;8.30;;;;;;;18.25;76.10;101071.34;4227809;28;20236;-70
2023/09/06 20:30:53;;;;;;;15.77;7.60;;;;;;;18.25;76.16;101079.59;4232496;28;20239;-72
2023/09/06 20:33:23;;;;;;;16.53;8.33;;;;;;;18.20;76.19;101074.63;4233617;28;21132;-75
2023/09/06 20:35:50;;;;;;;17.47;7.77;;;;;;;18.15;76.43;101085.31;4249839;28;20402;-75
2023/09/06 20:38:17;;;;;;;26.77;8.97;;;;;;;18.23;76.30;101078.94;4245058;28;20255;-73
2023/09/06 20:40:45;;;;;;;19.17;8.50;;;;;;;18.07;77.09;101079.88;4266458;28;20349;-72
2023/09/06 20:43:12;;;;;;;17.47;8.00;;;;;;;18.01;76.91;101080.59;4234551;28;20233;-74
2023/09/06 20:45:39;;;;;;;16.83;7.13;;;;;;;17.94;77.05;101076.84;4235795;28;20320;-75
2023/09/06 20:48:08;;;;;;;23.57;7.97;;;;;;;17.98;77.20;101080.94;4230396;28;20235;-77
2023/09/06 20:50:35;;;;;;;20.13;8.07;;;;;;;17.98;77.14;101078.22;4232774;28;22238;-75
2023/09/06 20:53:02;;;;;;;22.03;7.57;;;;;;;17.99;77.05;101083.53;4240226;28;20419;-73
2023/09/06 20:55:30;;;;;;;23.10;7.40;;;;;;;17.92;77.19;101076.16;4233544;28;20238;-74
2023/09/06 20:57:57;;;;;;;24.17;8.83;;;;;;;17.93;77.35;101081.50;4225682;28;22564;-75
2023/09/06 21:00:24;;;;;;;23.73;7.83;;;;;;;17.87;77.83;101082.19;4252961;28;20385;-75
2023/09/06 21:02:51;;;;;;;31.30;8.70;;;;;;;17.85;77.52;101089.75;4238164;28;21696;-73
2023/09/06 21:05:17;;;;;;;28.43;8.93;;;;;;;17.81;78.01;101083.78;4241098;28;20276;-75
2023/09/06 21:07:44;;;;;;;21.83;8.00;;;;;;;17.80;77.95;101086.69;4228805;28;22685;-75
2023/09/06 21:10:10;;;;;;;19.43;8.20;;;;;;;17.73;78.26;101087.41;4236696;28;25760;-76
2023/09/06 21:12:37;;;;;;;22.80;8.57;;;;;;;17.70;78.22;101085.03;4256960;28;20606;-76
2023/09/06 21:15:04;;;;;;;25.20;8.37;;;;;;;17.69;78.46;101093.41;4261497;28;21354;-77
2023/09/06 21:17:33;;;;;;;20.03;8.37;;;;;;;17.70;78.55;101090.50;4264311;28;20251;-74
2023/09/06 21:20:00;;;;;;;17.43;7.80;;;;;;;17.68;78.66;101089.84;4246352;28;20412;-73
2023/09/06 21:22:27;;;;;;;25.87;8.37;;;;;;;17.63;79.10;101088.66;4294204;28;21814;-74
2023/09/06 21:24:54;;;;;;;23.80;8.23;;;;;;;17.61;79.10;101090.69;4256127;28;21071;-74
2023/09/06 21:27:21;;;;;;;21.07;8.50;;;;;;;17.57;79.17;101092.94;4246578;28;21334;-76
2023/09/06 21:29:52;;;;;;;25.80;7.67;;;;;;;17.51;79.36;101102.75;4262788;28;20242;-73
2023/09/06 21:32:19;;;;;;;25.10;8.60;;;;;;;17.51;79.48;101101.88;4276561;28;20293;-77
2023/09/06 21:34:47;;;;;;;25.03;9.17;;;;;;;17.51;79.69;101094.53;4235971;28;20241;-41
2023/09/06 21:37:13;;;;;;;30.43;8.53;;;;;;;17.64;79.58;101106.78;4241332;28;20246;-45
2023/09/06 21:39:40;;;;;;;26.40;8.23;;;;;;;17.66;79.71;101097.34;4229859;28;20613;-45
2023/09/06 21:42:07;;;;;;;29.80;9.50;;;;;;;17.65;79.63;101103.88;4231132;28;20590;-49
2023/09/06 21:44:37;;;;;;;36.27;9.83;;;;;;;17.62;79.85;101103.38;4232067;28;20236;-68
2023/09/06 21:47:04;;;;;;;23.23;8.83;;;;;;;17.57;79.88;101109.38;4230808;28;20305;-68
2023/09/06 21:49:30;;;;;;;22.43;8.63;;;;;;;17.50;80.19;101098.28;4232372;28;21854;-69
2023/09/06 21:51:57;;;;;;;23.60;8.60;;;;;;;17.47;80.34;101103.28;4230223;28;20233;-69
2023/09/06 21:54:24;;;;;;;26.37;9.17;;;;;;;17.40;80.67;101112.19;4247069;28;21269;-69
2023/09/06 21:56:50;;;;;;;23.47;8.67;;;;;;;17.35;80.74;101117.31;4249642;28;26242;-74
2023/09/06 21:59:17;;;;;;;24.73;8.37;;;;;;;17.31;80.90;101115.97;4245211;28;20289;-72
2023/09/06 22:01:43;;;;;;;30.23;9.17;;;;;;;17.22;81.89;101122.50;4254080;28;20328;-70
2023/09/06 22:04:10;;;;;;;20.10;8.70;;;;;;;17.29;81.60;101120.75;4244926;28;20705;-71
2023/09/06 22:06:37;;;;;;;23.47;8.40;;;;;;;17.24;81.70;101115.81;4238260;28;20242;-67
2023/09/06 22:09:03;;;;;;;20.63;7.53;;;;;;;17.22;81.73;101112.38;4230208;28;20299;-69
2023/09/06 22:11:30;;;;;;;20.00;7.13;;;;;;;17.17;81.82;101117.53;4240694;28;21130;-69
2023/09/06 22:13:57;;;;;;;18.57;7.93;;;;;;;17.18;81.66;101116.50;4229473;28;21756;-71
2023/09/06 22:16:24;;;;;;;25.67;8.27;;;;;;;17.08;82.43;101122.19;4235828;28;20247;-67
2023/09/06 22:18:53;;;;;;;23.77;8.93;;;;;;;17.11;82.30;101127.28;4240220;28;21749;-68
2023/09/06 22:21:21;;;;;;;23.57;8.67;;;;;;;17.13;82.23;101120.78;4255664;28;21884;-69
2023/09/06 22:23:48;;;;;;;24.60;8.57;;;;;;;17.08;82.19;101124.91;4219185;28;21059;-69
2023/09/06 22:26:14;;;;;;;26.07;9.27;;;;;;;17.05;82.30;101130.72;4243137;28;24983;-69
2023/09/06 22:28:41;;;;;;;25.77;9.60;;;;;;;17.04;82.23;101134.47;4250670;28;21639;-70
2023/09/06 22:31:08;;;;;;;21.40;8.60;;;;;;;17.02;82.31;101139.28;4229301;28;20242;-69
2023/09/06 22:33:35;;;;;;;23.10;8.90;;;;;;;16.99;82.45;101136.03;4231402;28;20236;-70
2023/09/06 22:36:01;;;;;;;19.00;8.10;;;;;;;16.91;82.88;101140.47;4234515;28;20238;-69
2023/09/06 22:38:28;;;;;;;22.90;8.43;;;;;;;16.87;82.86;101139.09;4258083;28;20237;-70
2023/09/06 22:40:55;;;;;;;21.63;7.90;;;;;;;16.88;83.09;101142.69;4204909;28;20786;-70
2023/09/06 22:43:22;;;;;;;21.97;7.37;;;;;;;16.83;82.39;101151.41;4226711;28;20227;-68
2023/09/06 22:45:51;;;;;;;26.70;8.90;;;;;;;16.78;82.53;101153.78;4228436;28;20234;-71
2023/09/06 22:48:18;;;;;;;25.90;9.03;;;;;;;16.73;82.63;101154.28;4228395;28;20255;-70
2023/09/06 22:50:45;;;;;;;19.27;7.73;;;;;;;16.64;83.04;101156.16;4229263;28;20574;-69
2023/09/06 22:53:11;;;;;;;22.83;7.57;;;;;;;16.55;83.00;101146.25;4224907;28;20454;-70
2023/09/06 22:55:38;;;;;;;23.40;8.70;;;;;;;16.78;82.38;101151.91;4223177;28;22700;-69
2023/09/06 22:58:04;;;;;;;24.70;8.47;;;;;;;16.63;82.53;101157.19;4215459;28;20231;-70
2023/09/06 23:00:35;;;;;;;18.43;7.53;;;;;;;16.56;82.99;101156.16;4246307;28;20235;-69
2023/09/06 23:03:02;;;;;;;19.20;7.90;;;;;;;16.62;82.95;101152.75;4229396;28;20233;-70
2023/09/06 23:05:31;;;;;;;20.17;8.33;;;;;;;16.73;82.56;101151.56;4224052;28;20266;-70
2023/09/06 23:07:58;;;;;;;15.33;7.60;;;;;;;16.85;81.19;101141.13;4231662;28;20460;-67
2023/09/06 23:10:25;;;;;;;24.53;7.93;;;;;;;17.04;79.44;101147.31;4237551;28;20239;-70
2023/09/06 23:12:55;;;;;;;17.83;7.23;;;;;;;17.00;80.04;101148.66;4225177;28;26255;-70
2023/09/06 23:15:23;;;;;;;18.67;7.33;;;;;;;17.00;79.84;101143.19;4227783;28;21349;-69
2023/09/06 23:17:52;;;;;;;21.13;8.07;;;;;;;16.97;80.01;101144.41;4233220;28;20258;-68
2023/09/06 23:20:25;;;;;;;21.33;6.97;;;;;;;16.83;80.80;101145.94;4226801;28;20241;-70
2023/09/06 23:22:54;;;;;;;19.40;7.33;;;;;;;16.82;81.11;101146.09;4219341;28;20317;-71
2023/09/06 23:25:25;;;;;;;17.60;7.73;;;;;;;16.85;81.24;101143.03;4249621;28;20242;-68
2023/09/06 23:27:54;;;;;;;16.60;7.10;;;;;;;16.82;81.15;101144.22;4228406;28;21583;-70
2023/09/06 23:30:21;;;;;;;17.50;7.17;;;;;;;16.75;81.62;101141.31;4218944;28;20323;-69
2023/09/06 23:32:56;;;;;;;17.60;7.63;;;;;;;16.70;81.63;101145.56;4215010;28;20261;-70
2023/09/06 23:35:24;;;;;;;21.10;7.37;;;;;;;16.71;82.08;101145.41;4244576;28;20231;-69
2023/09/06 23:37:55;;;;;;;23.10;7.53;;;;;;;17.10;80.45;101144.75;4226123;28;20522;-69
2023/09/06 23:40:24;;;;;;;25.83;8.47;;;;;;;16.85;80.93;101152.06;4207360;28;20235;-69
2023/09/06 23:42:53;;;;;;;25.50;8.90;;;;;;;16.70;82.08;101151.91;4222807;28;20234;-70
2023/09/06 23:45:23;;;;;;;24.07;8.63;;;;;;;16.60;82.56;101146.63;4221104;28;20232;-71
2023/09/06 23:47:54;;;;;;;36.70;10.93;;;;;;;16.43;83.38;101150.34;4232144;28;20299;-70
2023/09/06 23:50:25;;;;;;;21.17;8.33;;;;;;;16.42;83.19;101152.22;4251998;28;21807;-70
2023/09/06 23:52:53;;;;;;;19.17;8.30;;;;;;;16.39;83.36;101151.72;4234644;28;22343;-69
2023/09/06 23:55:21;;;;;;;20.43;8.40;;;;;;;16.37;83.59;101157.31;4229285;28;20257;-69
2023/09/06 23:57:48;;;;;;;19.50;7.60;;;;;;;16.39;83.42;101158.03;4229136;28;20282;-69
